Time;durP1;ratioP1;P1;durP2;ratioP2;P2;SDS_P1;SDS_P2;PMS_P1;PMS_P2;Temp;Humidity;BMP_temperature;BMP_pressure;BME280_temperature;BME280_humidity;BME280_pressure;Samples;Min_cycle;Max_cycle;Signal;HPM_P1;HPM_P2
2022/04/09 00:06:51;;;;;;;6.00;1.62;;;4.60;99.90;;;;;;6730212;88;20286;-81
2022/04/09 00:16:52;;;;;;;5.72;1.67;;;4.40;99.90;;;;;;6732266;88;20216;-80
2022/04/09 00:26:52;;;;;;;9.93;2.05;;;4.30;99.90;;;;;;6732448;88;20261;-80
2022/04/09 00:36:53;;;;;;;4.68;1.77;;;4.20;99.90;;;;;;6735740;88;20668;-80
2022/04/09 00:57:56;;;;;;;12.23;2.55;;;4.10;99.90;;;;;;6779927;88;20175;-79
2022/04/09 01:07:57;;;;;;;8.90;1.92;;;4.00;99.90;;;;;;6782721;87;20199;-79
2022/04/09 01:18:00;;;;;;;7.47;1.75;;;4.00;99.90;;;;;;6766558;88;20222;-78
2022/04/09 01:28:02;;;;;;;15.85;2.17;;;4.10;99.90;;;;;;6774516;88;20145;-79
2022/04/09 01:38:02;;;;;;;6.12;1.60;;;4.20;99.90;;;;;;6786104;87;20171;-80
2022/04/09 01:48:03;;;;;;;11.73;1.60;;;4.20;99.90;;;;;;6749274;88;20272;-80
2022/04/09 01:58:04;;;;;;;9.68;1.98;;;4.10;99.90;;;;;;6748407;88;20172;-81
2022/04/09 02:08:05;;;;;;;10.52;2.12;;;4.10;99.90;;;;;;6744803;88;20174;-79
2022/04/09 02:18:06;;;;;;;6.97;2.03;;;4.30;99.90;;;;;;6727778;88;20578;-79
2022/04/09 02:28:06;;;;;;;10.20;2.35;;;4.30;99.90;;;;;;6755221;88;20311;-78
2022/04/09 02:38:09;;;;;;;7.60;1.92;;;4.20;99.90;;;;;;6765880;88;20950;-78
2022/04/09 02:48:10;;;;;;;9.75;2.03;;;4.30;99.90;;;;;;6794884;87;20172;-78
2022/04/09 02:58:11;;;;;;;10.75;2.00;;;4.40;99.90;;;;;;6802675;87;20172;-79
2022/04/09 03:08:12;;;;;;;12.90;2.20;;;4.60;99.90;;;;;;6782696;88;20156;-81
2022/04/09 03:18:13;;;;;;;13.88;2.37;;;4.50;99.90;;;;;;6800816;87;20979;-80
2022/04/09 03:28:13;;;;;;;8.60;1.95;;;4.50;99.90;;;;;;6798029;87;20171;-79
2022/04/09 03:38:14;;;;;;;8.80;2.20;;;4.50;99.90;;;;;;6782430;87;20170;-79
2022/04/09 03:48:14;;;;;;;9.57;1.80;;;4.50;99.90;;;;;;6802289;87;20169;-80
2022/04/09 03:58:16;;;;;;;14.43;2.15;;;4.70;99.90;;;;;;6784970;88;20192;-81
2022/04/09 04:08:17;;;;;;;10.20;2.05;;;4.60;99.90;;;;;;6784650;88;20196;-79
2022/04/09 04:18:18;;;;;;;14.50;1.80;;;4.70;99.90;;;;;;6783996;88;20167;-78
2022/04/09 04:28:18;;;;;;;14.65;2.25;;;4.70;99.90;;;;;;6781253;88;20938;-80
2022/04/09 04:38:19;;;;;;;10.90;1.92;;;4.70;99.90;;;;;;6764439;88;20283;-79
2022/04/09 04:48:22;;;;;;;15.27;2.00;;;4.70;99.90;;;;;;6764391;88;20167;-79
2022/04/09 04:58:23;;;;;;;12.52;2.00;;;4.60;99.90;;;;;;6764200;88;20153;-79
2022/04/09 05:08:23;;;;;;;14.43;2.20;;;4.60;99.90;;;;;;6780254;88;20281;-79
2022/04/09 05:18:24;;;;;;;11.37;1.87;;;4.60;99.90;;;;;;6786802;88;20178;-79
2022/04/09 05:28:25;;;;;;;13.90;2.30;;;4.70;99.90;;;;;;6786445;88;20539;-79
2022/04/09 05:38:25;;;;;;;14.45;2.37;;;4.70;99.90;;;;;;6786044;88;20683;-79
2022/04/09 05:48:26;;;;;;;14.77;2.17;;;4.60;99.90;;;;;;6785860;88;20493;-79
2022/04/09 05:58:26;;;;;;;13.27;2.58;;;4.60;99.90;;;;;;6781903;88;20145;-79
2022/04/09 06:08:27;;;;;;;14.33;2.10;;;4.80;99.90;;;;;;6748800;88;20231;-79
2022/04/09 06:18:27;;;;;;;13.25;2.03;;;4.90;99.90;;;;;;6748798;88;20514;-79
2022/04/09 06:28:29;;;;;;;14.70;2.10;;;5.00;99.90;;;;;;6745427;88;21035;-79
2022/04/09 06:38:31;;;;;;;15.23;2.72;;;5.30;99.90;;;;;;6777665;88;20172;-80
2022/04/09 06:48:31;;;;;;;15.20;2.37;;;5.60;99.90;;;;;;6785412;88;21187;-80
2022/04/09 06:58:33;;;;;;;10.75;1.83;;;5.90;99.90;;;;;;6785309;88;20270;-80
2022/04/09 07:08:34;;;;;;;8.75;1.98;;;6.30;99.90;;;;;;6785131;88;20151;-80
2022/04/09 07:18:34;;;;;;;11.30;1.92;;;6.60;99.90;;;;;;6764990;88;20782;-81
2022/04/09 07:28:36;;;;;;;13.07;1.60;;;7.00;99.90;;;;;;6728709;88;20819;-80
2022/04/09 07:49:38;;;;;;;12.57;1.92;;;7.70;99.90;;;;;;6798938;76;20175;-80
2022/04/09 07:59:39;;;;;;;10.57;1.80;;;7.90;99.90;;;;;;6749734;88;20185;-82
2022/04/09 08:09:39;;;;;;;14.48;1.87;;;8.20;99.90;;;;;;6757865;88;20200;-78
2022/04/09 08:19:40;;;;;;;14.20;2.12;;;8.50;99.90;;;;;;6729501;88;20224;-79
2022/04/09 08:29:41;;;;;;;9.57;1.80;;;9.10;99.90;;;;;;6747519;88;20205;-81
2022/04/09 08:39:41;;;;;;;14.57;2.00;;;8.60;99.90;;;;;;6746331;88;20193;-79
2022/04/09 08:49:47;;;;;;;10.20;2.10;;;8.20;99.90;;;;;;6750785;87;20209;-80
2022/04/09 08:59:47;;;;;;;8.83;2.47;;;8.90;99.90;;;;;;6772433;87;20187;-80
2022/04/09 09:09:50;;;;;;;7.43;1.55;;;8.80;99.90;;;;;;6775028;88;20194;-80
2022/04/09 09:19:51;;;;;;;10.57;1.60;;;8.60;99.90;;;;;;6777664;87;20191;-81
2022/04/09 09:29:53;;;;;;;8.88;1.40;;;9.50;99.90;;;;;;6771415;87;20216;-80
2022/04/09 09:39:54;;;;;;;7.60;1.17;;;10.00;99.90;;;;;;6774144;87;20239;-81
2022/04/09 09:49:58;;;;;;;8.88;1.67;;;10.70;99.90;;;;;;6754974;88;20334;-80
2022/04/09 10:00:04;;;;;;;5.40;1.30;;;10.20;99.90;;;;;;6754738;88;20191;-84
2022/04/09 10:10:06;;;;;;;11.70;1.60;;;9.70;99.90;;;;;;6754652;88;20833;-80
2022/04/09 10:20:08;;;;;;;5.97;1.20;;;9.80;99.90;;;;;;6770009;87;20741;-80
2022/04/09 10:30:13;;;;;;;6.40;1.48;;;10.60;99.90;;;;;;6773915;87;20552;-80
2022/04/09 10:40:14;;;;;;;7.37;1.30;;;11.20;98.10;;;;;;6771981;87;20279;-80
2022/04/09 10:50:14;;;;;;;7.43;1.60;;;11.20;97.80;;;;;;6768592;87;20211;-81
2022/04/09 11:00:22;;;;;;;5.85;1.10;;;12.30;93.00;;;;;;6771336;88;20507;-81
2022/04/09 11:10:22;;;;;;;4.95;1.00;;;12.00;92.10;;;;;;6767138;88;20824;-81
2022/04/09 11:20:23;;;;;;;6.25;1.20;;;10.60;93.00;;;;;;6768243;87;20268;-80
2022/04/09 11:30:24;;;;;;;6.85;1.50;;;10.50;97.20;;;;;;6770562;87;20185;-81
2022/04/09 11:40:24;;;;;;;4.28;1.00;;;11.90;92.10;;;;;;6769555;87;20187;-81
2022/04/09 11:50:39;;;;;;;5.80;1.10;;;10.70;95.60;;;;;;6734536;88;20668;-81
2022/04/09 12:00:42;;;;;;;2.30;0.90;;;11.20;95.10;;;;;;6739702;88;20704;-80
2022/04/09 12:11:00;;;;;;;3.85;1.00;;;9.10;99.90;;;;;;6748097;88;20262;-81
2022/04/09 12:21:16;;;;;;;6.57;1.40;;;8.40;99.90;;;;;;6779449;87;20198;-80
2022/04/09 12:31:24;;;;;;;4.22;1.23;;;8.80;99.90;;;;;;6778471;87;20252;-80
2022/04/09 12:41:24;;;;;;;6.55;1.40;;;9.30;99.90;;;;;;6773486;87;20268;-81
2022/04/09 12:51:27;;;;;;;2.90;1.12;;;9.70;99.40;;;;;;6774504;87;20357;-80
2022/04/09 13:01:27;;;;;;;2.37;0.85;;;8.90;99.90;;;;;;6787883;87;20784;-80
2022/04/09 13:11:28;;;;;;;5.90;1.10;;;8.10;99.90;;;;;;6792589;87;20360;-81
2022/04/09 13:21:29;;;;;;;5.63;1.63;;;8.20;99.90;;;;;;6798961;87;20216;-81
2022/04/09 13:31:31;;;;;;;4.70;1.50;;;9.90;98.50;;;;;;6794738;87;21124;-81
2022/04/09 13:41:32;;;;;;;5.45;1.60;;;11.80;94.40;;;;;;6793282;87;20678;-80
2022/04/09 13:51:33;;;;;;;4.15;1.20;;;11.70;93.60;;;;;;6692321;88;20281;-81
2022/04/09 14:01:34;;;;;;;4.18;1.05;;;10.40;94.70;;;;;;6779919;87;20228;-80
2022/04/09 14:11:35;;;;;;;3.05;0.95;;;10.00;94.50;;;;;;6794955;87;20867;-81
2022/04/09 14:21:36;;;;;;;4.07;1.20;;;10.30;94.10;;;;;;6798777;87;20155;-81
2022/04/09 14:31:37;;;;;;;3.10;1.40;;;11.30;92.60;;;;;;6797851;87;20339;-81
2022/04/09 14:41:38;;;;;;;3.08;1.40;;;11.90;92.90;;;;;;6791585;87;20214;-80
2022/04/09 14:51:39;;;;;;;5.50;1.58;;;11.30;93.90;;;;;;6789563;87;20206;-80
2022/04/09 15:01:39;;;;;;;2.60;1.12;;;10.60;95.50;;;;;;6787151;87;20851;-80
2022/04/09 15:11:40;;;;;;;2.65;1.10;;;9.90;98.40;;;;;;6782788;87;20200;-78
2022/04/09 15:21:41;;;;;;;2.97;1.20;;;9.80;97.10;;;;;;6760122;88;20191;-79
2022/04/09 15:31:42;;;;;;;2.92;1.30;;;9.20;99.90;;;;;;6761410;88;20265;-77
2022/04/09 15:41:43;;;;;;;3.05;1.33;;;9.00;99.90;;;;;;6765414;88;20611;-79
2022/04/09 15:51:43;;;;;;;3.85;1.30;;;9.50;99.90;;;;;;6763156;87;20211;-79
2022/04/09 16:02:05;;;;;;;3.35;1.20;;;10.00;99.90;;;;;;6772566;76;20195;-79
2022/04/09 16:12:08;;;;;;;3.47;1.30;;;10.20;99.90;;;;;;6734322;88;20399;-80
2022/04/09 16:22:09;;;;;;;2.65;1.35;;;9.70;99.60;;;;;;6722975;88;20197;-80
2022/04/09 16:32:10;;;;;;;3.72;1.50;;;9.20;99.90;;;;;;6728300;88;20177;-80
2022/04/09 16:42:11;;;;;;;3.70;1.60;;;8.60;99.90;;;;;;6722813;88;20208;-79
2022/04/09 16:52:13;;;;;;;4.45;1.27;;;8.40;99.90;;;;;;6726155;88;20228;-80
2022/04/09 17:02:14;;;;;;;3.87;1.60;;;7.90;99.90;;;;;;6730341;88;20268;-80
2022/04/09 17:12:14;;;;;;;3.37;1.75;;;7.70;99.90;;;;;;6728548;88;20201;-81
2022/04/09 17:22:15;;;;;;;2.50;1.27;;;7.70;99.90;;;;;;6733108;88;20197;-81
2022/04/09 17:32:16;;;;;;;2.90;1.30;;;7.60;99.90;;;;;;6742868;88;20543;-79
2022/04/09 17:42:16;;;;;;;6.20;1.52;;;7.50;99.90;;;;;;6741253;88;20192;-80
2022/04/09 17:52:17;;;;;;;3.65;1.48;;;7.50;99.90;;;;;;6738477;88;20185;-82
2022/04/09 18:02:18;;;;;;;5.53;1.42;;;7.30;99.90;;;;;;6736983;88;20214;-80
2022/04/09 18:12:18;;;;;;;3.77;1.57;;;7.20;99.90;;;;;;6728807;88;20208;-79
2022/04/09 18:22:20;;;;;;;5.20;1.73;;;7.00;99.90;;;;;;6734609;88;20532;-80
2022/04/09 18:32:21;;;;;;;4.95;1.80;;;6.90;99.90;;;;;;6726721;88;20186;-81
2022/04/09 18:42:22;;;;;;;4.43;1.73;;;6.90;99.90;;;;;;6727447;88;20735;-80
2022/04/09 18:52:22;;;;;;;4.10;1.62;;;6.60;99.90;;;;;;6726806;88;20205;-79
2022/04/09 19:02:23;;;;;;;5.45;1.62;;;6.50;99.90;;;;;;6728757;88;20245;-80
2022/04/09 19:12:23;;;;;;;4.43;1.67;;;6.60;99.90;;;;;;6731847;88;20209;-80
2022/04/09 19:22:24;;;;;;;3.90;1.83;;;6.40;99.90;;;;;;6733042;88;20177;-80
2022/04/09 19:32:24;;;;;;;3.25;1.62;;;6.20;99.90;;;;;;6736052;88;20621;-80
2022/04/09 19:42:26;;;;;;;3.80;1.80;;;6.10;99.90;;;;;;6735858;88;20252;-80
2022/04/09 19:53:07;;;;;;;5.70;2.00;;;5.90;99.90;;;;;;6753622;77;20843;-81
2022/04/09 20:03:08;;;;;;;4.80;1.60;;;6.00;99.90;;;;;;6738261;88;21082;-81
2022/04/09 20:13:09;;;;;;;3.53;1.30;;;6.00;99.90;;;;;;6733240;88;20184;-79
2022/04/09 20:23:13;;;;;;;5.03;1.40;;;5.80;99.90;;;;;;6739627;88;20638;-80
2022/04/09 20:33:13;;;;;;;6.10;1.60;;;5.60;99.90;;;;;;6735830;88;20282;-79
2022/04/09 20:43:14;;;;;;;5.32;1.40;;;5.50;99.90;;;;;;6722280;88;20307;-80
2022/04/09 20:53:14;;;;;;;9.77;1.70;;;5.30;99.90;;;;;;6740037;88;20192;-79
2022/04/09 21:03:15;;;;;;;5.12;1.50;;;5.10;99.90;;;;;;6757445;88;20205;-79
2022/04/09 21:13:16;;;;;;;5.97;1.60;;;4.80;99.90;;;;;;6751663;88;20212;-80
2022/04/09 21:23:16;;;;;;;4.05;1.75;;;4.60;99.90;;;;;;6756622;88;20655;-79
2022/04/09 21:33:17;;;;;;;4.82;1.70;;;4.60;99.90;;;;;;6753711;88;20231;-79
2022/04/09 21:43:18;;;;;;;4.28;1.45;;;4.60;99.90;;;;;;6750907;88;20222;-79
2022/04/09 21:53:18;;;;;;;3.92;1.55;;;4.40;99.90;;;;;;6747667;88;20258;-78
2022/04/09 22:03:19;;;;;;;3.42;1.75;;;4.20;99.90;;;;;;6746916;88;20246;-78
2022/04/09 22:13:19;;;;;;;4.15;1.58;;;4.10;99.90;;;;;;6748568;88;20532;-79
2022/04/09 22:23:20;;;;;;;3.42;1.40;;;4.20;99.90;;;;;;6744577;88;20587;-79
2022/04/09 22:33:21;;;;;;;3.33;1.48;;;4.10;99.90;;;;;;6744687;88;20271;-79
2022/04/09 22:43:21;;;;;;;3.87;1.27;;;4.00;99.90;;;;;;6744410;88;20204;-79
2022/04/09 22:53:22;;;;;;;4.43;1.60;;;4.00;99.90;;;;;;6747601;88;20558;-78
2022/04/09 23:03:22;;;;;;;3.00;1.52;;;3.90;99.90;;;;;;6714111;88;20511;-79
2022/04/09 23:13:23;;;;;;;4.43;1.67;;;3.80;99.90;;;;;;6712739;88;20239;-79
2022/04/09 23:23:23;;;;;;;4.05;1.80;;;3.80;99.90;;;;;;6723754;88;20203;-80
2022/04/09 23:33:24;;;;;;;5.12;1.73;;;3.60;99.90;;;;;;6714193;88;20197;-79
2022/04/09 23:43:24;;;;;;;5.90;1.80;;;3.60;99.90;;;;;;6713489;88;20306;-79
2022/04/09 23:53:25;;;;;;;5.47;1.80;;;3.70;99.90;;;;;;6712602;88;20280;-79
